sensor_id;sensor_type;location;lat;lon;timestamp;pressure;altitude;pressure_sealevel;temperature;humidity
50484;BME280;36409;52.168;20.878;2022-12-17T00:02:33;100547.11;;;-4.35;81.78
50484;BME280;36409;52.168;20.878;2022-12-17T00:05:22;100533.50;;;-4.36;81.72
50484;BME280;36409;52.168;20.878;2022-12-17T00:08:09;100540.36;;;-4.35;81.64
50484;BME280;36409;52.168;20.878;2022-12-17T00:10:57;100550.55;;;-4.35;81.64
50484;BME280;36409;52.168;20.878;2022-12-17T00:13:47;100544.56;;;-4.35;81.66
50484;BME280;36409;52.168;20.878;2022-12-17T00:16:35;100540.36;;;-4.35;81.88
50484;BME280;36409;52.168;20.878;2022-12-17T00:19:24;100543.70;;;-4.36;81.90
50484;BME280;36409;52.168;20.878;2022-12-17T00:22:11;100543.61;;;-4.37;81.93
50484;BME280;36409;52.168;20.878;2022-12-17T00:24:59;100553.73;;;-4.39;81.77
50484;BME280;36409;52.168;20.878;2022-12-17T00:27:46;100566.48;;;-4.39;81.78
50484;BME280;36409;52.168;20.878;2022-12-17T00:30:34;100561.33;;;-4.40;81.74
50484;BME280;36409;52.168;20.878;2022-12-17T00:33:22;100574.06;;;-4.40;81.64
50484;BME280;36409;52.168;20.878;2022-12-17T00:36:11;100584.27;;;-4.40;81.70
50484;BME280;36409;52.168;20.878;2022-12-17T00:38:59;100580.92;;;-4.39;81.72
50484;BME280;36409;52.168;20.878;2022-12-17T00:41:46;100587.73;;;-4.38;81.80
50484;BME280;36409;52.168;20.878;2022-12-17T00:44:37;100593.66;;;-4.39;81.86
50484;BME280;36409;52.168;20.878;2022-12-17T00:47:27;100591.11;;;-4.39;81.73
50484;BME280;36409;52.168;20.878;2022-12-17T00:50:15;100586.02;;;-4.39;81.88
50484;BME280;36409;52.168;20.878;2022-12-17T00:53:03;100586.88;;;-4.39;81.83
50484;BME280;36409;52.168;20.878;2022-12-17T00:55:50;100587.67;;;-4.40;81.84
50484;BME280;36409;52.168;20.878;2022-12-17T00:58:49;100595.38;;;-4.38;81.68
50484;BME280;36409;52.168;20.878;2022-12-17T01:01:44;100593.72;;;-4.38;81.87
50484;BME280;36409;52.168;20.878;2022-12-17T01:04:31;100602.23;;;-4.37;81.80
50484;BME280;36409;52.168;20.878;2022-12-17T01:07:20;100604.88;;;-4.36;81.87
50484;BME280;36409;52.168;20.878;2022-12-17T01:10:10;100602.23;;;-4.37;81.77
50484;BME280;36409;52.168;20.878;2022-12-17T01:13:03;100612.43;;;-4.37;81.57
50484;BME280;36409;52.168;20.878;2022-12-17T01:15:50;100592.93;;;-4.37;81.90
50484;BME280;36409;52.168;20.878;2022-12-17T01:18:39;100581.78;;;-4.39;81.75
50484;BME280;36409;52.168;20.878;2022-12-17T01:21:26;100584.27;;;-4.40;81.63
50484;BME280;36409;52.168;20.878;2022-12-17T01:24:14;100576.61;;;-4.40;81.88
50484;BME280;36409;52.168;20.878;2022-12-17T01:27:02;100589.36;;;-4.40;81.89
50484;BME280;36409;52.168;20.878;2022-12-17T01:29:52;100597.80;;;-4.41;81.71
50484;BME280;36409;52.168;20.878;2022-12-17T01:32:39;100600.35;;;-4.41;81.84
50484;BME280;36409;52.168;20.878;2022-12-17T01:35:27;100603.76;;;-4.41;81.95
50484;BME280;36409;52.168;20.878;2022-12-17T01:38:18;100598.59;;;-4.42;81.87
50484;BME280;36409;52.168;20.878;2022-12-17T01:41:05;100596.78;;;-4.45;81.79
50484;BME280;36409;52.168;20.878;2022-12-17T01:43:53;100595.89;;;-4.45;81.79
50484;BME280;36409;52.168;20.878;2022-12-17T01:46:54;100593.34;;;-4.45;81.97
50484;BME280;36409;52.168;20.878;2022-12-17T01:49:41;100605.22;;;-4.46;81.99
50484;BME280;36409;52.168;20.878;2022-12-17T01:52:29;100615.31;;;-4.47;81.75
50484;BME280;36409;52.168;20.878;2022-12-17T01:55:19;100613.56;;;-4.48;81.98
50484;BME280;36409;52.168;20.878;2022-12-17T01:58:09;100624.66;;;-4.48;81.88
50484;BME280;36409;52.168;20.878;2022-12-17T02:00:56;100627.09;;;-4.50;81.92
50484;BME280;36409;52.168;20.878;2022-12-17T02:03:47;100639.94;;;-4.48;81.90
50484;BME280;36409;52.168;20.878;2022-12-17T02:06:39;100635.64;;;-4.49;82.02
50484;BME280;36409;52.168;20.878;2022-12-17T02:09:35;100633.88;;;-4.50;81.99
50484;BME280;36409;52.168;20.878;2022-12-17T02:12:31;100633.72;;;-4.53;81.65
50484;BME280;36409;52.168;20.878;2022-12-17T02:15:25;100631.11;;;-4.55;82.05
50484;BME280;36409;52.168;20.878;2022-12-17T02:18:21;100627.77;;;-4.54;81.96
50484;BME280;36409;52.168;20.878;2022-12-17T02:21:11;100628.56;;;-4.55;81.86
50484;BME280;36409;52.168;20.878;2022-12-17T02:24:06;100631.90;;;-4.56;81.77
50484;BME280;36409;52.168;20.878;2022-12-17T02:27:01;100623.30;;;-4.58;81.82
50484;BME280;36409;52.168;20.878;2022-12-17T02:29:52;100615.58;;;-4.59;81.81
50484;BME280;36409;52.168;20.878;2022-12-17T02:32:43;100609.59;;;-4.60;82.14
50484;BME280;36409;52.168;20.878;2022-12-17T02:35:34;100611.28;;;-4.60;81.67
50484;BME280;36409;52.168;20.878;2022-12-17T02:38:26;100618.03;;;-4.61;82.04
50484;BME280;36409;52.168;20.878;2022-12-17T02:41:21;100616.21;;;-4.63;81.94
50484;BME280;36409;52.168;20.878;2022-12-17T02:44:13;100617.90;;;-4.64;82.01
50484;BME280;36409;52.168;20.878;2022-12-17T02:47:04;100617.01;;;-4.65;81.89
50484;BME280;36409;52.168;20.878;2022-12-17T02:49:53;100617.01;;;-4.65;81.87
50484;BME280;36409;52.168;20.878;2022-12-17T02:52:46;100618.69;;;-4.65;82.14
50484;BME280;36409;52.168;20.878;2022-12-17T02:55:35;100617.80;;;-4.66;82.11
50484;BME280;36409;52.168;20.878;2022-12-17T02:58:23;100624.58;;;-4.66;81.98
50484;BME280;36409;52.168;20.878;2022-12-17T03:01:14;100613.43;;;-4.68;81.97
50484;BME280;36409;52.168;20.878;2022-12-17T03:04:04;100624.52;;;-4.68;81.98
50484;BME280;36409;52.168;20.878;2022-12-17T03:06:51;100619.32;;;-4.69;81.98
50484;BME280;36409;52.168;20.878;2022-12-17T03:09:39;100624.41;;;-4.69;82.14
50484;BME280;36409;52.168;20.878;2022-12-17T03:12:27;100624.34;;;-4.71;82.17
50484;BME280;36409;52.168;20.878;2022-12-17T03:15:14;100622.53;;;-4.73;82.01
50484;BME280;36409;52.168;20.878;2022-12-17T03:18:02;100622.42;;;-4.75;82.04
50484;BME280;36409;52.168;20.878;2022-12-17T03:20:54;100618.92;;;-4.77;82.09
50484;BME280;36409;52.168;20.878;2022-12-17T03:23:41;100617.99;;;-4.79;82.05
50484;BME280;36409;52.168;20.878;2022-12-17T03:26:29;100620.37;;;-4.82;81.78
50484;BME280;36409;52.168;20.878;2022-12-17T03:29:16;100622.92;;;-4.82;82.21
50484;BME280;36409;52.168;20.878;2022-12-17T03:32:04;100624.50;;;-4.84;82.16
50484;BME280;36409;52.168;20.878;2022-12-17T03:34:51;100620.13;;;-4.87;81.72
50484;BME280;36409;52.168;20.878;2022-12-17T03:37:40;100624.33;;;-4.87;82.02
50484;BME280;36409;52.168;20.878;2022-12-17T03:40:27;100630.22;;;-4.88;82.04
50484;BME280;36409;52.168;20.878;2022-12-17T03:43:14;100626.81;;;-4.89;82.15
50484;BME280;36409;52.168;20.878;2022-12-17T03:46:02;100619.96;;;-4.90;82.14
50484;BME280;36409;52.168;20.878;2022-12-17T03:48:51;100622.51;;;-4.90;81.82
50484;BME280;36409;52.168;20.878;2022-12-17T03:51:42;100619.00;;;-4.92;82.23
50484;BME280;36409;52.168;20.878;2022-12-17T03:54:29;100630.88;;;-4.92;82.13
50484;BME280;36409;52.168;20.878;2022-12-17T03:57:16;100632.45;;;-4.94;82.03
50484;BME280;36409;52.168;20.878;2022-12-17T04:00:07;100634.94;;;-4.96;81.88
50484;BME280;36409;52.168;20.878;2022-12-17T04:02:55;100623.79;;;-4.98;81.93
50484;BME280;36409;52.168;20.878;2022-12-17T04:05:51;100615.19;;;-5.00;82.08
50484;BME280;36409;52.168;20.878;2022-12-17T04:08:41;100611.67;;;-5.02;82.18
50484;BME280;36409;52.168;20.878;2022-12-17T04:11:28;100630.29;;;-5.03;82.28
50484;BME280;36409;52.168;20.878;2022-12-17T04:14:15;100640.48;;;-5.03;82.19
50484;BME280;36409;52.168;20.878;2022-12-17T04:17:03;100636.97;;;-5.05;82.06
50484;BME280;36409;52.168;20.878;2022-12-17T04:19:52;100647.08;;;-5.07;82.23
50484;BME280;36409;52.168;20.878;2022-12-17T04:22:39;100655.52;;;-5.08;82.13
50484;BME280;36409;52.168;20.878;2022-12-17T04:25:29;100660.53;;;-5.09;82.15
50484;BME280;36409;52.168;20.878;2022-12-17T04:28:16;100673.16;;;-5.11;81.93
50484;BME280;36409;52.168;20.878;2022-12-17T04:31:15;100679.05;;;-5.12;82.18
50484;BME280;36409;52.168;20.878;2022-12-17T04:34:02;100693.53;;;-5.11;82.11
50484;BME280;36409;52.168;20.878;2022-12-17T04:36:50;100697.83;;;-5.10;82.11
50484;BME280;36409;52.168;20.878;2022-12-17T04:39:37;100695.22;;;-5.12;81.99
50484;BME280;36409;52.168;20.878;2022-12-17T04:42:24;100695.14;;;-5.13;81.97
50484;BME280;36409;52.168;20.878;2022-12-17T04:45:12;100712.06;;;-5.14;81.77
50484;BME280;36409;52.168;20.878;2022-12-17T04:48:03;100719.63;;;-5.15;82.15
50484;BME280;36409;52.168;20.878;2022-12-17T04:50:51;100714.44;;;-5.17;82.07
50484;BME280;36409;52.168;20.878;2022-12-17T04:53:39;100730.50;;;-5.18;82.17
50484;BME280;36409;52.168;20.878;2022-12-17T04:56:26;100735.59;;;-5.18;82.08
50484;BME280;36409;52.168;20.878;2022-12-17T04:59:15;100742.44;;;-5.17;81.88
50484;BME280;36409;52.168;20.878;2022-12-17T05:02:03;100749.22;;;-5.17;82.14
50484;BME280;36409;52.168;20.878;2022-12-17T05:04:50;100743.34;;;-5.16;82.08
50484;BME280;36409;52.168;20.878;2022-12-17T05:07:38;100756.14;;;-5.15;82.07
50484;BME280;36409;52.168;20.878;2022-12-17T05:10:26;100757.72;;;-5.17;82.09
50484;BME280;36409;52.168;20.878;2022-12-17T05:13:13;100746.75;;;-5.16;82.07
50484;BME280;36409;52.168;20.878;2022-12-17T05:16:02;100761.16;;;-5.16;82.18
50484;BME280;36409;52.168;20.878;2022-12-17T05:18:49;100758.61;;;-5.16;82.00
50484;BME280;36409;52.168;20.878;2022-12-17T05:21:37;100764.56;;;-5.16;81.99
50484;BME280;36409;52.168;20.878;2022-12-17T05:24:25;100765.36;;;-5.17;82.16
50484;BME280;36409;52.168;20.878;2022-12-17T05:27:13;100763.70;;;-5.16;82.14
50484;BME280;36409;52.168;20.878;2022-12-17T05:30:00;100760.98;;;-5.19;81.80
50484;BME280;36409;52.168;20.878;2022-12-17T05:32:57;100762.73;;;-5.18;82.06
50484;BME280;36409;52.168;20.878;2022-12-17T05:35:47;100759.14;;;-5.22;81.99
50484;BME280;36409;52.168;20.878;2022-12-17T05:38:36;100754.84;;;-5.23;82.05
50484;BME280;36409;52.168;20.878;2022-12-17T05:41:24;100755.63;;;-5.24;81.96
50484;BME280;36409;52.168;20.878;2022-12-17T05:44:12;100748.78;;;-5.25;81.76
50484;BME280;36409;52.168;20.878;2022-12-17T05:46:59;100750.36;;;-5.27;82.12
50484;BME280;36409;52.168;20.878;2022-12-17T05:49:47;100757.92;;;-5.29;82.02
50484;BME280;36409;52.168;20.878;2022-12-17T05:52:35;100763.88;;;-5.28;82.09
50484;BME280;36409;52.168;20.878;2022-12-17T05:55:23;100764.70;;;-5.29;81.98
50484;BME280;36409;52.168;20.878;2022-12-17T05:58:11;100761.97;;;-5.32;81.80
50484;BME280;36409;52.168;20.878;2022-12-17T06:01:01;100760.29;;;-5.32;82.02
50484;BME280;36409;52.168;20.878;2022-12-17T06:03:50;100768.81;;;-5.31;82.07
50484;BME280;36409;52.168;20.878;2022-12-17T06:06:38;100761.19;;;-5.31;81.82
50484;BME280;36409;52.168;20.878;2022-12-17T06:09:25;100758.45;;;-5.34;82.02
50484;BME280;36409;52.168;20.878;2022-12-17T06:12:12;100759.24;;;-5.35;81.80
50484;BME280;36409;52.168;20.878;2022-12-17T06:15:00;100757.41;;;-5.38;82.12
50484;BME280;36409;52.168;20.878;2022-12-17T06:17:53;100767.48;;;-5.39;81.90
50484;BME280;36409;52.168;20.878;2022-12-17T06:20:45;100769.95;;;-5.41;82.22
50484;BME280;36409;52.168;20.878;2022-12-17T06:23:35;100787.69;;;-5.43;82.10
50484;BME280;36409;52.168;20.878;2022-12-17T06:26:23;100791.02;;;-5.44;81.81
50484;BME280;36409;52.168;20.878;2022-12-17T06:29:11;100796.90;;;-5.45;81.74
50484;BME280;36409;52.168;20.878;2022-12-17T06:31:59;100807.08;;;-5.45;81.98
50484;BME280;36409;52.168;20.878;2022-12-17T06:34:46;100817.26;;;-5.45;81.99
50484;BME280;36409;52.168;20.878;2022-12-17T06:37:33;100818.12;;;-5.44;81.85
50484;BME280;36409;52.168;20.878;2022-12-17T06:40:21;100823.92;;;-5.47;81.93
50484;BME280;36409;52.168;20.878;2022-12-17T06:43:09;100834.09;;;-5.47;81.90
50484;BME280;36409;52.168;20.878;2022-12-17T06:45:56;100839.19;;;-5.47;81.98
50484;BME280;36409;52.168;20.878;2022-12-17T06:48:44;100840.08;;;-5.46;81.94
50484;BME280;36409;52.168;20.878;2022-12-17T06:51:31;100846.82;;;-5.47;82.04
50484;BME280;36409;52.168;20.878;2022-12-17T06:54:19;100850.27;;;-5.46;82.02
50484;BME280;36409;52.168;20.878;2022-12-17T06:57:09;100858.68;;;-5.47;81.96
50484;BME280;36409;52.168;20.878;2022-12-17T06:59:56;100850.15;;;-5.48;81.88
50484;BME280;36409;52.168;20.878;2022-12-17T07:02:44;100851.91;;;-5.47;82.05
50484;BME280;36409;52.168;20.878;2022-12-17T07:05:31;100853.67;;;-5.46;81.80
50484;BME280;36409;52.168;20.878;2022-12-17T07:08:19;100867.18;;;-5.47;81.89
50484;BME280;36409;52.168;20.878;2022-12-17T07:11:08;100856.92;;;-5.48;81.74
50484;BME280;36409;52.168;20.878;2022-12-17T07:13:56;100848.39;;;-5.49;81.59
50484;BME280;36409;52.168;20.878;2022-12-17T07:16:44;100843.30;;;-5.49;81.85
50484;BME280;36409;52.168;20.878;2022-12-17T07:19:32;100843.30;;;-5.49;82.07
50484;BME280;36409;52.168;20.878;2022-12-17T07:22:20;100854.37;;;-5.48;81.82
50484;BME280;36409;52.168;20.878;2022-12-17T07:25:09;100861.12;;;-5.49;81.98
50484;BME280;36409;52.168;20.878;2022-12-17T07:27:57;100868.75;;;-5.49;81.86
50484;BME280;36409;52.168;20.878;2022-12-17T07:30:46;100870.51;;;-5.48;81.84
50484;BME280;36409;52.168;20.878;2022-12-17T07:33:34;100880.87;;;-5.45;81.84
50484;BME280;36409;52.168;20.878;2022-12-17T07:36:22;100874.89;;;-5.45;81.75
50484;BME280;36409;52.168;20.878;2022-12-17T07:39:15;100882.52;;;-5.45;81.88
50484;BME280;36409;52.168;20.878;2022-12-17T07:42:02;100884.99;;;-5.47;81.82
50484;BME280;36409;52.168;20.878;2022-12-17T07:44:49;100889.38;;;-5.44;81.84
50484;BME280;36409;52.168;20.878;2022-12-17T07:47:37;100892.11;;;-5.41;81.78
50484;BME280;36409;52.168;20.878;2022-12-17T07:50:24;100890.46;;;-5.40;81.56
50484;BME280;36409;52.168;20.878;2022-12-17T07:53:21;100894.73;;;-5.39;81.61
50484;BME280;36409;52.168;20.878;2022-12-17T07:56:15;100893.87;;;-5.40;81.72
50484;BME280;36409;52.168;20.878;2022-12-17T07:59:03;100901.58;;;-5.38;81.61
50484;BME280;36409;52.168;20.878;2022-12-17T08:01:49;100910.11;;;-5.38;81.73
50484;BME280;36409;52.168;20.878;2022-12-17T08:04:38;100907.76;;;-5.35;82.09
50484;BME280;36409;52.168;20.878;2022-12-17T08:07:29;100909.59;;;-5.32;82.01
50484;BME280;36409;52.168;20.878;2022-12-17T08:10:20;100920.64;;;-5.32;81.72
50484;BME280;36409;52.168;20.878;2022-12-17T08:13:09;100912.84;;;-5.35;81.61
50484;BME280;36409;52.168;20.878;2022-12-17T08:16:03;100914.50;;;-5.35;81.66
50484;BME280;36409;52.168;20.878;2022-12-17T08:18:50;100922.13;;;-5.35;81.55
50484;BME280;36409;52.168;20.878;2022-12-17T08:21:37;100918.72;;;-5.36;81.53
50484;BME280;36409;52.168;20.878;2022-12-17T08:24:25;100930.47;;;-5.38;81.57
50484;BME280;36409;52.168;20.878;2022-12-17T08:27:14;100925.38;;;-5.38;81.72
50484;BME280;36409;52.168;20.878;2022-12-17T08:30:02;100931.34;;;-5.37;81.66
50484;BME280;36409;52.168;20.878;2022-12-17T08:32:49;100932.23;;;-5.37;81.49
50484;BME280;36409;52.168;20.878;2022-12-17T08:35:39;100939.24;;;-5.33;81.63
50484;BME280;36409;52.168;20.878;2022-12-17T08:38:27;100946.80;;;-5.34;81.61
50484;BME280;36409;52.168;20.878;2022-12-17T08:41:19;100949.34;;;-5.34;81.50
50484;BME280;36409;52.168;20.878;2022-12-17T08:44:07;100954.44;;;-5.34;81.45
50484;BME280;36409;52.168;20.878;2022-12-17T08:46:54;100957.84;;;-5.34;81.72
50484;BME280;36409;52.168;20.878;2022-12-17T08:49:42;100958.66;;;-5.35;81.45
50484;BME280;36409;52.168;20.878;2022-12-17T08:52:30;100958.66;;;-5.35;81.74
50484;BME280;36409;52.168;20.878;2022-12-17T08:55:18;100960.39;;;-5.34;81.60
50484;BME280;36409;52.168;20.878;2022-12-17T08:58:18;100956.20;;;-5.33;81.31
50484;BME280;36409;52.168;20.878;2022-12-17T09:01:05;100964.62;;;-5.34;81.30
50484;BME280;36409;52.168;20.878;2022-12-17T09:03:56;100969.00;;;-5.32;81.41
50484;BME280;36409;52.168;20.878;2022-12-17T09:06:44;100973.23;;;-5.32;81.37
50484;BME280;36409;52.168;20.878;2022-12-17T09:09:32;100971.47;;;-5.33;81.43
50484;BME280;36409;52.168;20.878;2022-12-17T09:12:20;100974.72;;;-5.36;81.32
50484;BME280;36409;52.168;20.878;2022-12-17T09:15:12;100977.94;;;-5.38;81.46
50484;BME280;36409;52.168;20.878;2022-12-17T09:18:02;100982.86;;;-5.41;81.30
50484;BME280;36409;52.168;20.878;2022-12-17T09:20:53;100989.52;;;-5.44;81.34
50484;BME280;36409;52.168;20.878;2022-12-17T09:23:42;100998.92;;;-5.43;81.28
50484;BME280;36409;52.168;20.878;2022-12-17T09:26:32;100999.70;;;-5.44;81.31
50484;BME280;36409;52.168;20.878;2022-12-17T09:29:22;101002.24;;;-5.44;81.26
50484;BME280;36409;52.168;20.878;2022-12-17T09:32:24;101004.00;;;-5.43;81.24
50484;BME280;36409;52.168;20.878;2022-12-17T09:35:12;100999.78;;;-5.42;81.27
50484;BME280;36409;52.168;20.878;2022-12-17T09:38:00;100998.02;;;-5.43;81.11
50484;BME280;36409;52.168;20.878;2022-12-17T09:40:49;101001.34;;;-5.44;81.01
50484;BME280;36409;52.168;20.878;2022-12-17T09:43:46;101004.79;;;-5.44;81.13
50484;BME280;36409;52.168;20.878;2022-12-17T09:46:41;101008.82;;;-5.47;80.94
50484;BME280;36409;52.168;20.878;2022-12-17T09:49:32;101001.07;;;-5.49;81.04
50484;BME280;36409;52.168;20.878;2022-12-17T09:52:23;101007.14;;;-5.47;81.47
50484;BME280;36409;52.168;20.878;2022-12-17T09:55:19;100996.37;;;-5.43;81.20
50484;BME280;36409;52.168;20.878;2022-12-17T09:58:19;101007.53;;;-5.40;81.18
50484;BME280;36409;52.168;20.878;2022-12-17T10:01:14;101006.83;;;-5.38;81.43
50484;BME280;36409;52.168;20.878;2022-12-17T10:04:09;101014.19;;;-5.43;81.11
50484;BME280;36409;52.168;20.878;2022-12-17T10:06:59;101012.42;;;-5.44;81.01
50484;BME280;36409;52.168;20.878;2022-12-17T10:09:50;101013.20;;;-5.45;81.02
50484;BME280;36409;52.168;20.878;2022-12-17T10:12:38;101022.60;;;-5.44;81.17
50484;BME280;36409;52.168;20.878;2022-12-17T10:15:26;101019.44;;;-5.39;80.80
50484;BME280;36409;52.168;20.878;2022-12-17T10:18:14;101025.78;;;-5.33;81.11
50484;BME280;36409;52.168;20.878;2022-12-17T10:21:09;101027.47;;;-5.33;80.80
50484;BME280;36409;52.168;20.878;2022-12-17T10:24:05;101030.80;;;-5.34;81.03
50484;BME280;36409;52.168;20.878;2022-12-17T10:26:54;101044.89;;;-5.39;80.89
50484;BME280;36409;52.168;20.878;2022-12-17T10:29:43;101047.55;;;-5.38;81.13
50484;BME280;36409;52.168;20.878;2022-12-17T10:32:31;101047.63;;;-5.36;81.00
50484;BME280;36409;52.168;20.878;2022-12-17T10:35:21;101047.05;;;-5.32;81.14
50484;BME280;36409;52.168;20.878;2022-12-17T10:38:18;101054.68;;;-5.32;80.89
50484;BME280;36409;52.168;20.878;2022-12-17T10:41:20;101057.62;;;-5.39;80.81
50484;BME280;36409;52.168;20.878;2022-12-17T10:44:26;101059.09;;;-5.43;80.84
50484;BME280;36409;52.168;20.878;2022-12-17T10:47:15;101061.36;;;-5.48;80.87
50484;BME280;36409;52.168;20.878;2022-12-17T10:50:08;101056.08;;;-5.51;80.66
50484;BME280;36409;52.168;20.878;2022-12-17T10:52:56;101053.25;;;-5.55;80.90
50484;BME280;36409;52.168;20.878;2022-12-17T10:55:49;101050.53;;;-5.59;80.51
50484;BME280;36409;52.168;20.878;2022-12-17T10:58:44;101062.28;;;-5.61;80.82
50484;BME280;36409;52.168;20.878;2022-12-17T11:01:32;101060.43;;;-5.63;80.83
50484;BME280;36409;52.168;20.878;2022-12-17T11:04:26;101056.01;;;-5.66;81.05
50484;BME280;36409;52.168;20.878;2022-12-17T11:07:18;101068.84;;;-5.64;80.62
50484;BME280;36409;52.168;20.878;2022-12-17T11:10:13;101058.67;;;-5.64;80.89
50484;BME280;36409;52.168;20.878;2022-12-17T11:13:00;101054.53;;;-5.62;80.90
50484;BME280;36409;52.168;20.878;2022-12-17T11:15:51;101059.62;;;-5.62;80.55
50484;BME280;36409;52.168;20.878;2022-12-17T11:18:47;101062.48;;;-5.57;80.87
50484;BME280;36409;52.168;20.878;2022-12-17T11:21:40;101061.00;;;-5.54;80.71
50484;BME280;36409;52.168;20.878;2022-12-17T11:24:32;101062.84;;;-5.51;81.15
50484;BME280;36409;52.168;20.878;2022-12-17T11:27:26;101061.36;;;-5.48;81.13
50484;BME280;36409;52.168;20.878;2022-12-17T11:30:16;101064.89;;;-5.46;80.81
50484;BME280;36409;52.168;20.878;2022-12-17T11:33:11;101064.11;;;-5.45;81.19
50484;BME280;36409;52.168;20.878;2022-12-17T11:36:05;101080.23;;;-5.44;80.87
50484;BME280;36409;52.168;20.878;2022-12-17T11:39:17;101085.05;;;-5.49;80.84
50484;BME280;36409;52.168;20.878;2022-12-17T11:42:13;101081.72;;;-5.48;81.09
50484;BME280;36409;52.168;20.878;2022-12-17T11:45:16;101074.28;;;-5.45;80.78
50484;BME280;36409;52.168;20.878;2022-12-17T11:48:07;101074.98;;;-5.47;81.14
50484;BME280;36409;52.168;20.878;2022-12-17T11:51:02;101081.52;;;-5.51;81.01
50484;BME280;36409;52.168;20.878;2022-12-17T11:54:02;101093.75;;;-5.45;80.93
50484;BME280;36409;52.168;20.878;2022-12-17T11:56:59;101114.42;;;-5.40;80.96
50484;BME280;36409;52.168;20.878;2022-12-17T11:59:53;101114.30;;;-5.42;80.87
50484;BME280;36409;52.168;20.878;2022-12-17T12:02:54;101106.67;;;-5.42;80.95
50484;BME280;36409;52.168;20.878;2022-12-17T12:05:49;101110.98;;;-5.41;80.70
50484;BME280;36409;52.168;20.878;2022-12-17T12:08:46;101114.59;;;-5.37;80.66
50484;BME280;36409;52.168;20.878;2022-12-17T12:11:40;101092.47;;;-5.38;80.92
50484;BME280;36409;52.168;20.878;2022-12-17T12:14:36;101101.70;;;-5.40;80.80
50484;BME280;36409;52.168;20.878;2022-12-17T12:17:40;101110.70;;;-5.46;80.43
50484;BME280;36409;52.168;20.878;2022-12-17T12:20:43;101111.28;;;-5.50;80.84
50484;BME280;36409;52.168;20.878;2022-12-17T12:23:44;101120.79;;;-5.47;80.84
50484;BME280;36409;52.168;20.878;2022-12-17T12:26:44;101127.73;;;-5.45;81.01
50484;BME280;36409;52.168;20.878;2022-12-17T12:29:39;101131.26;;;-5.43;80.89
50484;BME280;36409;52.168;20.878;2022-12-17T12:32:37;101130.36;;;-5.43;80.75
50484;BME280;36409;52.168;20.878;2022-12-17T12:35:28;101137.21;;;-5.42;80.70
50484;BME280;36409;52.168;20.878;2022-12-17T12:38:20;101146.69;;;-5.39;80.82
50484;BME280;36409;52.168;20.878;2022-12-17T12:41:38;101148.66;;;-5.35;81.08
50484;BME280;36409;52.168;20.878;2022-12-17T12:44:33;101155.52;;;-5.34;80.93
50484;BME280;36409;52.168;20.878;2022-12-17T12:47:29;101150.42;;;-5.34;80.89
50484;BME280;36409;52.168;20.878;2022-12-17T12:50:21;101155.59;;;-5.33;80.92
50484;BME280;36409;52.168;20.878;2022-12-17T12:53:12;101149.64;;;-5.33;80.64
50484;BME280;36409;52.168;20.878;2022-12-17T12:55:59;101147.09;;;-5.33;80.76
50484;BME280;36409;52.168;20.878;2022-12-17T12:58:47;101147.80;;;-5.36;80.86
50484;BME280;36409;52.168;20.878;2022-12-17T13:01:38;101141.44;;;-5.43;80.70
50484;BME280;36409;52.168;20.878;2022-12-17T13:04:32;101149.73;;;-5.45;80.63
50484;BME280;36409;52.168;20.878;2022-12-17T13:07:22;101153.09;;;-5.46;80.54
50484;BME280;36409;52.168;20.878;2022-12-17T13:09:54;101149.65;;;-5.47;80.92
50484;BME280;36409;52.168;20.878;2022-12-17T13:12:30;101152.40;;;-5.44;81.17
50484;BME280;36409;52.168;20.878;2022-12-17T13:15:15;101149.24;;;-5.39;80.96
50484;BME280;36409;52.168;20.878;2022-12-17T13:17:55;101154.45;;;-5.38;80.71
50484;BME280;36409;52.168;20.878;2022-12-17T13:20:29;101158.47;;;-5.41;81.02
50484;BME280;36409;52.168;20.878;2022-12-17T13:23:14;101166.97;;;-5.41;80.93
50484;BME280;36409;52.168;20.878;2022-12-17T13:25:45;101168.65;;;-5.41;80.95
50484;BME280;36409;52.168;20.878;2022-12-17T13:28:28;101171.08;;;-5.43;80.48
50484;BME280;36409;52.168;20.878;2022-12-17T13:31:03;101161.39;;;-5.49;80.79
50484;BME280;36409;52.168;20.878;2022-12-17T13:33:41;101172.95;;;-5.54;80.37
50484;BME280;36409;52.168;20.878;2022-12-17T13:36:19;101171.68;;;-5.61;80.73
50484;BME280;36409;52.168;20.878;2022-12-17T13:38:58;101183.33;;;-5.64;80.74
50484;BME280;36409;52.168;20.878;2022-12-17T13:41:32;101182.23;;;-5.68;80.57
50484;BME280;36409;52.168;20.878;2022-12-17T13:44:17;101184.48;;;-5.72;80.80
50484;BME280;36409;52.168;20.878;2022-12-17T13:46:49;101189.27;;;-5.77;80.69
50484;BME280;36409;52.168;20.878;2022-12-17T13:49:21;101183.11;;;-5.81;80.49
50484;BME280;36409;52.168;20.878;2022-12-17T13:52:01;101198.28;;;-5.82;80.73
50484;BME280;36409;52.168;20.878;2022-12-17T13:54:39;101187.81;;;-5.87;80.69
50484;BME280;36409;52.168;20.878;2022-12-17T13:57:13;101190.14;;;-5.90;80.42
50484;BME280;36409;52.168;20.878;2022-12-17T13:59:50;101191.70;;;-5.92;80.62
50484;BME280;36409;52.168;20.878;2022-12-17T14:02:25;101188.16;;;-5.94;80.92
50484;BME280;36409;52.168;20.878;2022-12-17T14:04:56;101187.98;;;-5.97;80.90
50484;BME280;36409;52.168;20.878;2022-12-17T14:07:29;101188.59;;;-6.01;80.73
50484;BME280;36409;52.168;20.878;2022-12-17T14:09:58;101198.76;;;-6.01;80.47
50484;BME280;36409;52.168;20.878;2022-12-17T14:12:28;101205.40;;;-6.03;80.92
50484;BME280;36409;52.168;20.878;2022-12-17T14:15:04;101208.62;;;-6.06;80.72
50484;BME280;36409;52.168;20.878;2022-12-17T14:17:39;101205.96;;;-6.08;80.98
50484;BME280;36409;52.168;20.878;2022-12-17T14:20:14;101217.72;;;-6.10;80.93
50484;BME280;36409;52.168;20.878;2022-12-17T14:22:47;101225.34;;;-6.10;80.78
50484;BME280;36409;52.168;20.878;2022-12-17T14:25:22;101238.83;;;-6.11;80.91
50484;BME280;36409;52.168;20.878;2022-12-17T14:27:54;101239.61;;;-6.12;80.96
50484;BME280;36409;52.168;20.878;2022-12-17T14:30:32;101241.25;;;-6.12;80.71
50484;BME280;36409;52.168;20.878;2022-12-17T14:33:23;101254.64;;;-6.15;81.11